Terminal Aerodrome Forecast
Issued by NWS

Home | Current Version | Previous Version | Text Only | Print | Product List | Glossary On
Versions: 1 2 3 4 5 6 7 8 9 10 11 12 13 14
000
FTUS43 KICT 221120
TAFRSL
TAF
KRSL 221120Z 2212/2312 28010KT P6SM VCSH SCT040 BKN070
     FM221500 31015KT P6SM BKN080
     FM221700 31025G35KT P6SM SCT030 BKN120
     FM230100 29012KT P6SM SCT120=

USA.gov is the U.S. government's official web portal to all federal, state and local government web resources and services.